Time;durP1;ratioP1;P1;durP2;ratioP2;P2;SDS_P1;SDS_P2;PMS_P1;PMS_P2;Temp;Humidity;BMP_temperature;BMP_pressure;BME280_temperature;BME280_humidity;BME280_pressure;Samples;Min_cycle;Max_cycle;Signal;HPM_P1;HPM_P2
2021/12/24 00:02:16;;;;;;;53.58;33.25;;;;;;;0.24;100.00;98121.19;5052475;28;20036;-82
2021/12/24 00:04:41;;;;;;;54.35;33.03;;;;;;;0.26;100.00;98117.75;5050542;28;20145;-82
2021/12/24 00:07:07;;;;;;;47.30;30.63;;;;;;;0.28;100.00;98114.25;5052415;28;20021;-82
2021/12/24 00:09:33;;;;;;;48.80;32.08;;;;;;;0.13;100.00;98092.50;5051450;28;20119;-83
2021/12/24 00:12:02;;;;;;;49.88;31.83;;;;;;;0.31;100.00;98118.44;5069620;28;20078;-82
2021/12/24 00:14:30;;;;;;;48.17;31.42;;;;;;;0.14;100.00;98089.06;5053003;28;20043;-83
2021/12/24 00:17:00;;;;;;;51.38;32.75;;;;;;;0.30;100.00;98096.28;5053168;28;20032;-83
2021/12/24 00:35:41;;;;;;;44.33;30.25;;;;;;;0.36;100.00;98091.81;5049610;28;20189;-82
2021/12/24 00:38:10;;;;;;;44.92;29.77;;;;;;;0.40;100.00;98079.75;5049426;28;20041;-82
2021/12/24 00:40:43;;;;;;;45.17;30.77;;;;;;;0.32;100.00;98058.66;5049549;28;20533;-82
2021/12/24 00:43:09;;;;;;;47.05;29.63;;;;;;;0.41;100.00;98055.81;5049371;28;20136;-83
2021/12/24 00:45:40;;;;;;;44.17;28.70;;;;;;;0.45;100.00;98058.22;5032828;28;20037;-82
2021/12/24 00:48:08;;;;;;;43.25;28.05;;;;;;;0.40;100.00;98049.03;5032615;28;20037;-83
2021/12/24 00:56:01;;;;;;;42.08;27.92;;;;;;;0.51;100.00;98049.53;5049174;28;20086;-82
2021/12/24 00:58:27;;;;;;;40.00;27.58;;;;;;;0.50;100.00;98042.72;5049458;28;20037;-82
2021/12/24 01:00:52;;;;;;;40.72;28.02;;;;;;;0.43;100.00;98036.97;5050239;28;20051;-82
2021/12/24 01:03:18;;;;;;;41.42;27.30;;;;;;;0.42;100.00;98037.00;5050398;28;20218;-82
2021/12/24 01:05:43;;;;;;;44.58;29.17;;;;;;;0.36;100.00;98014.16;5050563;28;20039;-83
2021/12/24 01:08:12;;;;;;;40.38;27.67;;;;;;;0.55;100.00;98047.69;5050271;28;20025;-83
2021/12/24 01:10:40;;;;;;;38.97;26.73;;;;;;;0.47;100.00;98027.47;5051640;28;20025;-82
2021/12/24 01:13:06;;;;;;;38.13;26.52;;;;;;;0.56;100.00;98050.22;5051674;28;20079;-83
2021/12/24 01:15:34;;;;;;;38.20;26.42;;;;;;;0.59;100.00;98045.00;5053404;28;20033;-83
2021/12/24 01:18:12;;;;;;;41.17;27.17;;;;;;;0.60;100.00;98041.53;5054402;28;20036;-83
2021/12/24 01:20:44;;;;;;;36.42;25.58;;;;;;;0.57;100.00;98017.75;5054383;28;20025;-83
2021/12/24 01:38:50;;;;;;;39.63;26.83;;;;;;;0.72;100.00;97999.31;5055699;28;20083;-83
2021/12/24 01:42:39;;;;;;;37.35;25.40;;;;;;;0.71;100.00;97995.06;5055275;28;20380;-84
2021/12/24 01:44:01;;;;;;;41.83;27.92;;;;;;;0.69;100.00;97995.13;5055084;28;20029;-83
2021/12/24 01:46:26;;;;;;;43.33;28.70;;;;;;;0.71;100.00;98000.19;5054240;28;20029;-83
2021/12/24 01:48:51;;;;;;;42.00;28.20;;;;;;;0.71;100.00;97995.88;5054083;28;20029;-83
2021/12/24 01:51:17;;;;;;;43.22;28.15;;;;;;;0.71;100.00;97988.19;5055208;28;20112;-83
2021/12/24 01:53:42;;;;;;;39.88;26.92;;;;;;;0.69;100.00;97971.22;5055363;28;20415;-83
2021/12/24 01:56:09;;;;;;;39.22;26.98;;;;;;;0.75;100.00;97987.22;5054835;28;20025;-83
2021/12/24 01:58:34;;;;;;;40.92;26.90;;;;;;;0.74;100.00;97977.84;5053820;28;20028;-83
2021/12/24 02:00:59;;;;;;;44.70;29.00;;;;;;;0.66;100.00;97961.91;5053959;28;20094;-83
2021/12/24 02:03:25;;;;;;;41.35;28.08;;;;;;;0.71;100.00;97975.41;5053647;28;20025;-83
2021/12/24 02:05:51;;;;;;;38.00;25.98;;;;;;;0.82;100.00;97979.34;5053740;28;20536;-83
2021/12/24 02:08:18;;;;;;;36.80;25.85;;;;;;;0.83;100.00;97978.44;5053326;28;20063;-83
2021/12/24 02:10:44;;;;;;;34.30;23.85;;;;;;;0.72;100.00;97958.31;5054964;28;20496;-83
2021/12/24 02:13:10;;;;;;;35.58;24.88;;;;;;;0.83;100.00;97975.88;5053210;28;20044;-83
2021/12/24 02:29:17;;;;;;;38.35;26.15;;;;;;;0.82;100.00;97935.75;5054502;28;20435;-83
2021/12/24 02:31:43;;;;;;;40.70;26.60;;;;;;;0.85;100.00;97943.34;5053116;28;20021;-83
2021/12/24 02:34:09;;;;;;;37.97;25.95;;;;;;;0.88;100.00;97944.06;5054124;28;20032;-83
2021/12/24 02:36:34;;;;;;;38.40;26.35;;;;;;;0.80;100.00;97934.97;5054524;28;20052;-83
2021/12/24 02:39:00;;;;;;;37.78;24.10;;;;;;;0.88;100.00;97944.06;5053160;28;20587;-83
2021/12/24 02:41:25;;;;;;;38.25;26.67;;;;;;;0.88;100.00;97936.38;5054450;28;20052;-83
2021/12/24 02:43:51;;;;;;;42.47;28.08;;;;;;;0.89;100.00;97937.25;5052895;28;20465;-83
2021/12/24 02:53:53;;;;;;;34.78;24.25;;;;;;;0.91;100.00;97953.38;5071542;28;20368;-83
2021/12/24 02:54:44;;;;;;;37.08;25.33;;;;;;;0.96;100.00;97954.06;5071617;28;20585;-83
2021/12/24 02:57:10;;;;;;;37.30;26.95;;;;;;;0.97;100.00;97953.19;5054616;28;20029;-82
2021/12/24 02:59:46;;;;;;;35.00;25.05;;;;;;;0.89;100.00;97938.06;5054603;28;20078;-83
2021/12/24 03:02:12;;;;;;;35.83;25.50;;;;;;;0.89;100.00;97925.25;5071325;28;20047;-83
2021/12/24 03:04:37;;;;;;;37.88;25.80;;;;;;;0.98;100.00;97944.59;5054703;28;20044;-83
2021/12/24 03:07:03;;;;;;;37.78;25.30;;;;;;;0.99;100.00;97948.81;5071624;28;20028;-83
2021/12/24 03:09:28;;;;;;;35.33;24.60;;;;;;;1.06;100.00;97949.47;5054428;28;20047;-82
2021/12/24 03:11:54;;;;;;;36.45;26.00;;;;;;;1.03;100.00;97934.19;5071438;28;20207;-83
2021/12/24 03:14:20;;;;;;;34.28;24.00;;;;;;;1.03;100.00;97940.13;5054195;28;20032;-83
2021/12/24 03:16:53;;;;;;;37.20;26.60;;;;;;;0.96;100.00;97925.84;5054299;28;20029;-83
2021/12/24 03:19:19;;;;;;;36.70;24.45;;;;;;;1.01;100.00;97934.22;5054035;28;20096;-84
2021/12/24 03:21:59;;;;;;;37.25;24.95;;;;;;;1.01;100.00;97926.53;5054271;28;20507;-83
2021/12/24 03:26:50;;;;;;;38.42;27.20;;;;;;;1.05;100.00;97917.00;5053449;28;20121;-83
2021/12/24 03:29:17;;;;;;;38.17;25.75;;;;;;;1.13;100.00;97928.66;5051931;28;20033;-83
2021/12/24 03:31:44;;;;;;;33.63;23.50;;;;;;;0.99;100.00;97897.56;5052014;28;20033;-83
2021/12/24 03:34:12;;;;;;;42.28;27.00;;;;;;;1.06;100.00;97901.56;5051799;28;20025;-83
2021/12/24 03:36:37;;;;;;;39.22;27.40;;;;;;;1.12;100.00;97911.59;5051767;28;20806;-83
2021/12/24 03:39:05;;;;;;;39.17;27.65;;;;;;;1.12;100.00;97910.75;5051798;28;20040;-83
2021/12/24 03:41:30;;;;;;;40.45;27.40;;;;;;;1.14;100.00;97906.44;5051711;28;20044;-83
2021/12/24 03:43:56;;;;;;;51.10;31.10;;;;;;;1.14;100.00;97907.25;5051895;28;20469;-83
2021/12/24 03:46:30;;;;;;;41.17;28.25;;;;;;;1.16;100.00;97912.31;5051527;28;20111;-83
2021/12/24 03:49:00;;;;;;;41.25;29.27;;;;;;;1.09;100.00;97906.56;5051695;28;20032;-82
2021/12/24 03:57:05;;;;;;;50.08;30.73;;;;;;;1.10;100.00;97903.16;5070683;28;20040;-82
2021/12/24 03:59:30;;;;;;;48.47;30.38;;;;;;;1.11;100.00;97909.09;5069911;28;20036;-83
2021/12/24 04:01:56;;;;;;;54.75;33.63;;;;;;;1.10;100.00;97892.06;5053612;28;20071;-83
2021/12/24 04:04:21;;;;;;;48.78;28.75;;;;;;;1.11;100.00;97894.56;5053213;28;20507;-82
2021/12/24 04:06:47;;;;;;;48.15;28.52;;;;;;;1.03;100.00;97878.59;5053490;28;20039;-82
2021/12/24 04:09:12;;;;;;;46.97;28.80;;;;;;;1.10;100.00;97889.50;5069969;28;20046;-83
2021/12/24 04:11:39;;;;;;;45.08;28.23;;;;;;;1.02;100.00;97873.56;5053256;28;20088;-83
2021/12/24 04:14:04;;;;;;;45.30;26.85;;;;;;;1.13;100.00;97879.09;5053230;28;20078;-83
2021/12/24 04:16:30;;;;;;;45.65;28.00;;;;;;;1.18;100.00;97892.59;5052963;28;20746;-82
2021/12/24 04:27:09;;;;;;;42.38;27.23;;;;;;;1.21;100.00;97866.84;5070326;28;20126;-83
2021/12/24 04:29:34;;;;;;;40.20;26.80;;;;;;;1.29;100.00;97880.19;5052512;28;20083;-83
2021/12/24 04:32:16;;;;;;;38.80;25.00;;;;;;;1.26;100.00;97875.19;5050996;28;20025;-83
2021/12/24 04:34:43;;;;;;;35.40;24.15;;;;;;;1.31;100.00;97873.31;5050920;28;20576;-82
2021/12/24 04:51:25;;;;;;;25.65;18.60;;;;;;;1.36;100.00;97868.00;5029169;28;20103;-82
2021/12/24 05:04:57;;;;;;;22.88;15.63;;;;;;;1.53;100.00;97875.03;5029812;28;20076;-83
2021/12/24 05:08:08;;;;;;;21.67;15.85;;;;;;;1.67;100.00;97890.72;5028845;28;20068;-82
2021/12/24 05:10:08;;;;;;;19.35;14.88;;;;;;;1.71;100.00;97884.59;5026185;28;20069;-83
2021/12/24 05:12:34;;;;;;;17.98;14.57;;;;;;;1.71;100.00;97882.84;5009278;28;20061;-84
2021/12/24 05:15:01;;;;;;;20.00;15.25;;;;;;;1.65;100.00;97870.28;4993053;28;20057;-83
2021/12/24 05:17:35;;;;;;;20.27;14.95;;;;;;;1.65;100.00;97861.75;4992883;28;20603;-83
2021/12/24 05:22:44;;;;;;;19.90;15.18;;;;;;;1.66;100.00;97859.09;5051937;28;20043;-83
2021/12/24 05:25:09;;;;;;;17.00;13.88;;;;;;;1.74;100.00;97862.22;5050530;28;20033;-83
2021/12/24 05:27:36;;;;;;;17.55;13.65;;;;;;;1.74;100.00;97867.34;5050206;28;20063;-83
2021/12/24 05:30:03;;;;;;;18.10;13.77;;;;;;;1.90;100.00;97879.56;5050315;28;20029;-83
2021/12/24 05:32:28;;;;;;;16.70;13.60;;;;;;;1.91;100.00;97876.09;5050078;28;20507;-83
2021/12/24 05:34:54;;;;;;;16.45;12.43;;;;;;;1.86;100.00;97867.75;5050330;28;20083;-83
2021/12/24 05:37:19;;;;;;;14.68;12.43;;;;;;;2.00;100.00;97873.16;5051334;28;20025;-84
2021/12/24 05:39:44;;;;;;;16.50;13.27;;;;;;;1.97;100.00;97866.41;5050495;28;20112;-83
2021/12/24 05:42:10;;;;;;;16.35;12.80;;;;;;;2.02;100.00;97868.78;5051581;28;20378;-83
2021/12/24 05:44:35;;;;;;;15.63;13.00;;;;;;;2.04;100.00;97869.56;5051317;28;20040;-83
2021/12/24 05:47:01;;;;;;;16.55;12.93;;;;;;;2.06;100.00;97866.94;5050122;28;20439;-84
2021/12/24 05:49:26;;;;;;;17.38;12.75;;;;;;;2.06;100.00;97867.75;5051246;28;20036;-83
2021/12/24 05:51:52;;;;;;;15.05;12.25;;;;;;;2.07;100.00;97858.34;5050000;28;20583;-83
2021/12/24 05:54:17;;;;;;;16.25;13.38;;;;;;;2.10;100.00;97855.63;5049880;28;20052;-83
2021/12/24 05:56:44;;;;;;;15.80;12.55;;;;;;;2.03;100.00;97844.81;5051431;28;20029;-83
2021/12/24 05:59:09;;;;;;;16.77;11.68;;;;;;;2.13;100.00;97858.09;5051428;28;20061;-83
2021/12/24 06:01:35;;;;;;;15.25;12.23;;;;;;;2.19;100.00;97861.25;5052797;28;20052;-83
2021/12/24 06:04:00;;;;;;;15.60;12.82;;;;;;;2.10;100.00;97835.09;5054962;28;20104;-83
2021/12/24 06:06:26;;;;;;;14.93;11.65;;;;;;;2.14;100.00;97836.63;5053392;28;20026;-82
2021/12/24 06:08:51;;;;;;;13.30;11.00;;;;;;;2.17;100.00;97845.06;5053722;28;20025;-82
2021/12/24 06:11:17;;;;;;;14.20;11.57;;;;;;;2.14;100.00;97829.75;5053689;28;20033;-83
2021/12/24 06:13:42;;;;;;;15.40;11.70;;;;;;;2.10;100.00;97820.53;5053475;28;20021;-83
2021/12/24 06:16:09;;;;;;;14.95;11.82;;;;;;;2.16;100.00;97819.44;5053442;28;20385;-82
2021/12/24 06:18:38;;;;;;;13.55;11.25;;;;;;;2.21;100.00;97826.06;5053340;28;20029;-83
2021/12/24 06:21:03;;;;;;;15.30;11.40;;;;;;;2.19;100.00;97825.28;5054492;28;20158;-83
2021/12/24 06:23:31;;;;;;;15.48;11.60;;;;;;;2.29;100.00;97837.75;5054597;28;20411;-83
2021/12/24 06:25:58;;;;;;;13.82;11.25;;;;;;;2.27;100.00;97837.78;5054700;28;20491;-83
2021/12/24 06:28:25;;;;;;;14.80;11.27;;;;;;;2.22;100.00;97837.16;5051621;28;20503;-83
2021/12/24 06:30:52;;;;;;;13.27;11.52;;;;;;;2.31;100.00;97841.06;5052024;28;20037;-83
2021/12/24 06:33:18;;;;;;;14.00;11.07;;;;;;;2.15;100.00;97810.91;5071818;28;20040;-83
2021/12/24 06:35:44;;;;;;;13.50;10.45;;;;;;;2.27;100.00;97835.22;5054831;28;20526;-83
2021/12/24 06:38:10;;;;;;;13.82;11.38;;;;;;;2.25;100.00;97822.44;5055105;28;20141;-83
2021/12/24 06:40:35;;;;;;;12.95;10.75;;;;;;;2.32;100.00;97841.03;5071688;28;20036;-83
2021/12/24 06:43:01;;;;;;;13.07;11.10;;;;;;;2.35;100.00;97840.03;5072144;28;20053;-83
2021/12/24 06:45:26;;;;;;;12.05;10.75;;;;;;;2.32;100.00;97835.88;5066635;28;20540;-83
2021/12/24 06:47:54;;;;;;;13.05;10.85;;;;;;;2.43;100.00;97843.94;5074985;28;20062;-83
2021/12/24 06:50:20;;;;;;;12.80;11.10;;;;;;;2.47;100.00;97850.63;5074837;28;20024;-83
2021/12/24 06:52:45;;;;;;;11.95;10.23;;;;;;;2.38;100.00;97829.66;5091828;28;20040;-82
2021/12/24 06:55:11;;;;;;;13.30;10.57;;;;;;;2.45;100.00;97846.47;5074492;28;20044;-83
2021/12/24 06:57:39;;;;;;;14.25;11.63;;;;;;;2.46;100.00;97841.25;5091637;28;20035;-80
2021/12/24 07:00:07;;;;;;;13.88;11.20;;;;;;;2.49;100.00;97843.72;5091755;28;20108;-79
2021/12/24 07:02:32;;;;;;;14.10;11.27;;;;;;;2.54;100.00;97852.97;5091355;28;20395;-80
2021/12/24 07:04:58;;;;;;;13.10;11.40;;;;;;;2.41;100.00;97832.91;5073590;28;20087;-80
2021/12/24 07:07:23;;;;;;;13.85;11.65;;;;;;;2.60;100.00;97852.69;5053742;28;20029;-83
2021/12/24 07:09:49;;;;;;;12.20;10.38;;;;;;;2.62;100.00;97841.44;5054096;28;20223;-86
2021/12/24 07:12:15;;;;;;;12.52;10.45;;;;;;;2.61;100.00;97836.34;5053699;28;20388;-84
2021/12/24 07:14:41;;;;;;;12.70;10.27;;;;;;;2.67;100.00;97842.06;5051902;28;20029;-88
2021/12/24 07:17:09;;;;;;;13.80;10.90;;;;;;;2.64;100.00;97847.34;5072426;28;20079;-84
2021/12/24 07:19:35;;;;;;;12.73;10.40;;;;;;;2.64;100.00;97839.63;5037860;28;20127;-85
2021/12/24 07:22:03;;;;;;;13.82;10.43;;;;;;;2.64;100.00;97837.06;5071448;28;20112;-87
2021/12/24 07:24:29;;;;;;;14.18;10.75;;;;;;;2.62;100.00;97836.31;5070680;28;20488;-87
2021/12/24 07:26:55;;;;;;;13.40;10.43;;;;;;;2.56;100.00;97826.28;5071063;28;20032;-89
2021/12/24 07:29:41;;;;;;;12.05;10.75;;;;;;;2.78;100.00;97853.59;5055811;28;20040;-83
2021/12/24 07:32:07;;;;;;;27.63;18.08;;;;;;;2.71;100.00;97838.47;5014338;28;20037;-86
2021/12/24 07:34:33;;;;;;;29.35;22.60;;;;;;;2.82;100.00;97839.72;5030894;28;20048;-86
2021/12/24 07:36:59;;;;;;;27.20;22.00;;;;;;;2.80;100.00;97841.53;5030772;28;20453;-86
2021/12/24 07:39:26;;;;;;;40.65;32.63;;;;;;;2.84;100.00;97832.78;5011221;28;20030;-85
2021/12/24 07:41:53;;;;;;;25.33;21.20;;;;;;;2.85;100.00;97835.28;5030614;28;20497;-86
2021/12/24 07:44:20;;;;;;;14.32;12.65;;;;;;;2.92;100.00;97843.56;5014097;28;20060;-87
2021/12/24 07:46:56;;;;;;;14.23;11.52;;;;;;;2.94;100.00;97850.28;5013812;28;20076;-87
2021/12/24 07:52:08;;;;;;;15.98;14.27;;;;;;;2.91;100.00;97850.44;5030616;28;20072;-86
2021/12/24 07:54:36;;;;;;;14.65;13.15;;;;;;;2.92;100.00;97843.56;5030239;28;20511;-87
2021/12/24 07:57:02;;;;;;;15.35;13.48;;;;;;;2.96;100.00;97843.34;5030753;28;20076;-87
2021/12/24 07:59:30;;;;;;;17.92;13.90;;;;;;;2.88;100.00;97824.03;5013599;28;20057;-87
2021/12/24 08:01:56;;;;;;;20.05;14.88;;;;;;;2.89;100.00;97813.66;5030453;28;20473;-87
2021/12/24 08:04:22;;;;;;;19.80;15.70;;;;;;;3.00;100.00;97824.31;5033536;28;20074;-87
2021/12/24 08:06:48;;;;;;;16.98;14.23;;;;;;;2.93;100.00;97814.38;5033789;28;20524;-85
2021/12/24 08:09:13;;;;;;;17.90;15.02;;;;;;;3.02;100.00;97824.22;5033544;28;20033;-83
2021/12/24 08:11:39;;;;;;;21.65;17.58;;;;;;;3.05;100.00;97823.28;5049903;28;20037;-83
2021/12/24 08:14:06;;;;;;;19.13;15.65;;;;;;;2.99;100.00;97801.22;5034469;28;20037;-83
2021/12/24 08:16:33;;;;;;;15.88;14.00;;;;;;;3.03;100.00;97800.19;5052339;28;20040;-83
2021/12/24 08:18:59;;;;;;;16.75;14.95;;;;;;;3.06;100.00;97788.94;5051203;28;20059;-82
2021/12/24 08:21:25;;;;;;;19.60;15.07;;;;;;;3.05;100.00;97779.56;5052254;28;20056;-82
2021/12/24 08:23:51;;;;;;;26.65;20.58;;;;;;;3.20;100.00;97792.53;5050766;28;20025;-83
2021/12/24 08:26:18;;;;;;;30.40;22.95;;;;;;;3.14;100.00;97781.69;5051940;28;20036;-82
2021/12/24 08:28:43;;;;;;;32.47;23.27;;;;;;;3.17;100.00;97786.69;5067440;28;20109;-82
2021/12/24 08:31:09;;;;;;;29.17;22.00;;;;;;;3.21;100.00;97796.78;5051042;28;20472;-83
2021/12/24 08:33:35;;;;;;;31.98;22.35;;;;;;;3.11;100.00;97782.66;5069403;28;20186;-82
2021/12/24 08:36:05;;;;;;;25.35;20.13;;;;;;;3.12;100.00;97771.50;5069769;28;20149;-82
2021/12/24 08:38:31;;;;;;;25.80;20.08;;;;;;;3.25;100.00;97793.16;5052689;28;20391;-82
2021/12/24 08:40:58;;;;;;;28.55;20.38;;;;;;;3.24;100.00;97786.34;5052902;28;20491;-83
2021/12/24 08:43:24;;;;;;;48.40;32.65;;;;;;;3.23;100.00;97781.25;5069191;28;20062;-82
2021/12/24 08:45:50;;;;;;;51.58;31.55;;;;;;;3.22;100.00;97780.44;5069455;28;20133;-83
2021/12/24 08:48:15;;;;;;;46.42;30.08;;;;;;;3.30;100.00;97790.38;5052724;28;20037;-82
2021/12/24 08:50:41;;;;;;;46.55;27.90;;;;;;;3.31;100.00;97781.72;5052412;28;20477;-82
2021/12/24 08:53:07;;;;;;;46.13;27.80;;;;;;;3.31;100.00;97778.34;5069444;28;20042;-83
2021/12/24 08:55:34;;;;;;;43.30;28.15;;;;;;;3.29;100.00;97772.41;5052169;28;20052;-83
2021/12/24 08:58:04;;;;;;;52.25;31.65;;;;;;;3.26;100.00;97768.25;5057515;28;20033;-83
2021/12/24 09:00:32;;;;;;;49.50;30.50;;;;;;;3.38;100.00;97790.00;5084924;28;20033;-83
2021/12/24 09:02:58;;;;;;;59.92;33.55;;;;;;;3.44;100.00;97807.72;5069250;28;20028;-83
2021/12/24 09:05:25;;;;;;;70.18;34.95;;;;;;;3.44;100.00;97813.69;5078610;28;20032;-83
2021/12/24 09:07:53;;;;;;;83.13;45.55;;;;;;;3.35;100.00;97796.13;5032114;28;20033;-83
2021/12/24 09:10:19;;;;;;;77.38;41.15;;;;;;;3.45;100.00;97817.09;5049096;28;20041;-83
2021/12/24 09:12:44;;;;;;;74.82;40.60;;;;;;;3.40;100.00;97801.06;5049242;28;20052;-91
2021/12/24 09:15:12;;;;;;;76.68;42.38;;;;;;;3.45;100.00;97811.97;5029712;28;20076;-87
2021/12/24 09:17:43;;;;;;;82.75;50.30;;;;;;;3.47;100.00;97811.00;5012577;28;20481;-87
2021/12/24 09:20:12;;;;;;;75.88;48.97;;;;;;;3.43;100.00;97800.91;5016796;28;20048;-85
2021/12/24 09:22:39;;;;;;;100.65;65.70;;;;;;;3.44;100.00;97793.09;5048846;28;20076;-81
2021/12/24 09:25:05;;;;;;;97.40;67.80;;;;;;;3.48;100.00;97802.34;5032361;28;20032;-81
2021/12/24 09:27:30;;;;;;;90.38;62.28;;;;;;;3.46;100.00;97787.91;5048931;28;20455;-83
2021/12/24 09:29:56;;;;;;;66.82;47.20;;;;;;;3.49;100.00;97782.59;5049657;28;20071;-83
2021/12/24 09:32:23;;;;;;;49.15;33.97;;;;;;;3.58;100.00;97774.44;5069099;28;20032;-82
2021/12/24 09:34:50;;;;;;;43.40;30.25;;;;;;;3.56;100.00;97768.53;5051913;28;20040;-81
2021/12/24 09:37:15;;;;;;;45.88;27.98;;;;;;;3.68;100.00;97777.41;5055275;28;20032;-83
2021/12/24 09:39:40;;;;;;;53.20;34.03;;;;;;;3.66;100.00;97769.75;5088398;28;20032;-81
2021/12/24 09:42:09;;;;;;;51.72;32.70;;;;;;;3.63;100.00;97756.22;5095843;28;20028;-81
2021/12/24 09:44:37;;;;;;;45.92;28.60;;;;;;;3.71;100.00;97759.25;5095499;28;20031;-82
2021/12/24 09:47:02;;;;;;;40.85;26.83;;;;;;;3.75;100.00;97760.75;5095623;28;20024;-81
2021/12/24 09:49:28;;;;;;;24.90;18.25;;;;;;;3.66;100.00;97748.31;5095489;28;20520;-81
2021/12/24 09:51:57;;;;;;;22.27;15.68;;;;;;;3.67;100.00;97739.72;5094277;28;20027;-81
2021/12/24 09:54:25;;;;;;;17.40;13.32;;;;;;;3.71;100.00;97757.50;5094166;28;20044;-80
2021/12/24 09:56:56;;;;;;;19.10;15.57;;;;;;;3.72;100.00;97748.03;5095713;28;20020;-82
2021/12/24 09:59:24;;;;;;;17.83;13.57;;;;;;;3.78;100.00;97754.59;5094513;28;20411;-82
2021/12/24 10:01:55;;;;;;;16.45;13.07;;;;;;;3.72;100.00;97730.00;5093867;28;20103;-81
2021/12/24 10:04:26;;;;;;;16.77;13.15;;;;;;;3.73;100.00;97724.78;5091203;28;20538;-81
2021/12/24 10:07:07;;;;;;;18.27;12.23;;;;;;;3.76;100.00;97723.78;5072512;28;20024;-81
2021/12/24 10:09:37;;;;;;;20.15;13.07;;;;;;;3.89;100.00;97729.16;5074729;28;20024;-81
2021/12/24 10:12:09;;;;;;;21.77;13.85;;;;;;;3.89;100.00;97731.75;5073504;28;20021;-81
2021/12/24 10:14:36;;;;;;;49.25;29.00;;;;;;;3.92;100.00;97739.31;5074307;28;20029;-81
2021/12/24 10:17:12;;;;;;;55.67;32.33;;;;;;;3.90;100.00;97726.50;5074802;28;20078;-81
2021/12/24 10:19:53;;;;;;;45.08;28.73;;;;;;;3.97;100.00;97729.63;5074605;28;20020;-81
2021/12/24 10:22:19;;;;;;;40.45;25.98;;;;;;;3.97;100.00;97730.44;5070507;28;20089;-81
2021/12/24 10:25:24;;;;;;;34.78;22.85;;;;;;;4.02;100.00;97722.47;5073039;28;20036;-81
2021/12/24 10:27:49;;;;;;;28.30;19.20;;;;;;;3.95;100.00;97710.81;5071978;28;20036;-81
2021/12/24 10:30:22;;;;;;;24.85;17.55;;;;;;;4.05;100.00;97722.34;5072453;28;20037;-81
2021/12/24 10:32:49;;;;;;;20.63;15.98;;;;;;;4.04;100.00;97717.25;5071749;28;20035;-81
2021/12/24 10:35:22;;;;;;;24.73;16.77;;;;;;;4.06;100.00;97720.59;5071833;28;20028;-81
2021/12/24 10:38:13;;;;;;;24.13;18.70;;;;;;;4.07;100.00;97717.09;5071567;28;20048;-81
2021/12/24 10:41:04;;;;;;;18.77;15.80;;;;;;;4.05;100.00;97706.88;5054875;28;20025;-81
2021/12/24 10:43:39;;;;;;;17.45;12.85;;;;;;;4.00;100.00;97691.66;5054727;28;20056;-81
2021/12/24 10:46:10;;;;;;;15.82;11.68;;;;;;;4.10;100.00;97706.63;5071849;28;20052;-81
2021/12/24 10:48:36;;;;;;;;;;;;;;;4.16;100.00;97708.88;5071073;28;20024;-81
2021/12/24 10:51:07;;;;;;;11.90;9.90;;;;;;;4.06;100.00;97684.53;5054912;28;19915;-82
2021/12/24 10:54:01;;;;;;;12.40;9.90;;;;;;;4.15;100.00;97697.75;5071584;28;20036;-84
2021/12/24 10:56:26;;;;;;;11.98;9.05;;;;;;;4.23;100.00;97695.59;5071593;28;20045;-84
2021/12/24 10:58:52;;;;;;;10.80;8.88;;;;;;;4.25;100.00;97682.63;5054524;28;20075;-84
2021/12/24 11:01:18;;;;;;;11.18;9.15;;;;;;;4.30;100.00;97682.38;5054685;28;20036;-84
2021/12/24 11:03:44;;;;;;;13.40;10.55;;;;;;;4.37;100.00;97682.00;5044251;28;20484;-83
2021/12/24 11:06:11;;;;;;;13.55;10.18;;;;;;;4.44;100.00;97680.75;5069166;28;20043;-84
2021/12/24 11:08:37;;;;;;;12.82;10.68;;;;;;;4.51;100.00;97681.28;5070924;28;20052;-83
2021/12/24 11:11:06;;;;;;;12.55;9.77;;;;;;;4.58;100.00;97686.91;5071371;28;20083;-84
2021/12/24 11:13:39;;;;;;;13.30;9.57;;;;;;;4.53;100.00;97663.97;5071007;28;20036;-83
2021/12/24 11:16:07;;;;;;;11.75;10.45;;;;;;;4.57;100.00;97660.31;5071021;28;20365;-83
2021/12/24 11:18:36;;;;;;;13.82;10.05;;;;;;;4.66;100.00;97659.81;5071247;28;20129;-84
2021/12/24 11:21:01;;;;;;;13.32;9.65;;;;;;;4.82;100.00;97682.19;5054250;28;20388;-83
2021/12/24 11:23:30;;;;;;;13.23;8.43;;;;;;;4.84;100.00;97667.44;5070929;28;20036;-84
2021/12/24 11:25:58;;;;;;;16.90;10.38;;;;;;;4.89;100.00;97670.63;5070888;28;20074;-82
2021/12/24 11:28:26;;;;;;;15.82;11.30;;;;;;;4.91;100.00;97671.34;5054104;28;20442;-81
2021/12/24 11:30:54;;;;;;;13.98;10.50;;;;;;;4.93;100.00;97667.78;5070700;28;20029;-82
2021/12/24 11:33:24;;;;;;;12.98;9.68;;;;;;;4.95;100.00;97660.78;5054140;28;20044;-84
2021/12/24 11:35:52;;;;;;;12.48;8.80;;;;;;;4.91;100.00;97641.22;5090951;28;20094;-81
2021/12/24 11:38:23;;;;;;;19.92;11.50;;;;;;;4.92;100.00;97639.47;5093553;28;20028;-81
2021/12/24 11:40:51;;;;;;;15.70;11.60;;;;;;;5.05;100.00;97637.88;5091990;28;20446;-84
2021/12/24 11:43:22;;;;;;;11.60;8.65;;;;;;;5.09;100.00;97629.03;5092101;28;20447;-85
2021/12/24 11:45:48;;;;;;;21.75;15.65;;;;;;;5.03;100.00;97618.25;5091867;28;20404;-84
2021/12/24 11:48:14;;;;;;;10.48;8.25;;;;;;;5.26;100.00;97635.81;5091950;28;20024;-85
2021/12/24 11:50:41;;;;;;;15.52;9.95;;;;;;;5.26;100.00;97635.81;5091887;28;20039;-85
2021/12/24 11:53:09;;;;;;;11.35;7.65;;;;;;;5.29;100.00;97634.81;5093285;28;20077;-85
2021/12/24 11:55:42;;;;;;;7.85;6.13;;;;;;;5.36;100.00;97644.72;5092692;28;20361;-81
2021/12/24 11:58:21;;;;;;;6.97;5.90;;;;;;;5.27;100.00;97624.59;5093004;28;20020;-81
2021/12/24 12:00:53;;;;;;;9.75;8.13;;;;;;;5.30;100.00;97611.50;5092604;28;20024;-81
2021/12/24 12:03:40;;;;;;;8.20;7.28;;;;;;;5.43;100.00;97627.09;5092514;28;20093;-81
2021/12/24 12:06:33;;;;;;;9.35;6.50;;;;;;;5.44;100.00;97616.72;5075219;28;20035;-81
2021/12/24 12:09:02;;;;;;;6.15;5.45;;;;;;;5.49;100.00;97614.69;5072386;28;20085;-81
2021/12/24 12:11:31;;;;;;;7.97;6.63;;;;;;;5.33;100.00;97590.69;5072746;28;20141;-81
2021/12/24 12:14:04;;;;;;;8.00;6.40;;;;;;;5.48;100.00;97599.28;5054930;28;20484;-82
2021/12/24 12:16:42;;;;;;;7.30;5.60;;;;;;;5.56;100.00;97616.88;5053600;28;20063;-83
2021/12/24 12:19:15;;;;;;;6.82;5.35;;;;;;;5.56;100.00;97611.72;5050979;28;20020;-83
2021/12/24 12:22:10;;;;;;;7.35;5.95;;;;;;;5.50;100.00;97592.28;5069302;28;20037;-82
2021/12/24 12:25:09;;;;;;;7.78;5.50;;;;;;;5.59;100.00;97603.81;5069804;28;20032;-84
2021/12/24 12:27:37;;;;;;;7.35;5.47;;;;;;;5.54;100.00;97587.75;5049501;28;20044;-81
2021/12/24 12:30:20;;;;;;;5.72;4.70;;;;;;;5.61;100.00;97605.38;5049748;28;20033;-80
2021/12/24 12:32:48;;;;;;;7.38;6.15;;;;;;;5.55;100.00;97595.41;5049644;28;20440;-80
2021/12/24 12:35:15;;;;;;;11.15;6.00;;;;;;;5.51;100.00;97588.75;5049495;28;20083;-80
2021/12/24 12:37:42;;;;;;;5.63;4.63;;;;;;;5.61;100.00;97600.22;5049359;28;20481;-80
2021/12/24 12:40:17;;;;;;;5.72;4.97;;;;;;;5.66;100.00;97597.38;5049900;28;20036;-80
2021/12/24 12:42:48;;;;;;;7.32;5.38;;;;;;;5.64;100.00;97602.59;5049370;28;20076;-80
2021/12/24 12:45:14;;;;;;;8.52;5.50;;;;;;;5.64;100.00;97600.03;5049395;28;20033;-80
2021/12/24 12:48:22;;;;;;;6.10;5.38;;;;;;;5.57;100.00;97580.66;5032515;28;20064;-80
2021/12/24 12:50:57;;;;;;;7.35;5.45;;;;;;;5.57;100.00;97574.69;4970365;28;20810;-80
2021/12/24 12:53:22;;;;;;;8.98;6.18;;;;;;;5.69;100.00;97600.59;4970777;28;20601;-85
2021/12/24 12:56:07;;;;;;;8.38;5.85;;;;;;;5.68;100.00;97588.59;4970326;28;20090;-84
2021/12/24 12:58:34;;;;;;;6.55;5.68;;;;;;;5.73;100.00;97598.63;4970547;28;20043;-84
2021/12/24 13:01:20;;;;;;;9.10;6.20;;;;;;;5.61;100.00;97582.16;4970466;28;20043;-84
2021/12/24 13:04:00;;;;;;;8.35;5.97;;;;;;;5.74;100.00;97600.31;4970156;28;20035;-85
2021/12/24 13:06:47;;;;;;;7.43;6.55;;;;;;;5.62;100.00;97570.88;4935396;29;20138;-85
2021/12/24 13:09:20;;;;;;;7.55;6.47;;;;;;;5.65;100.00;97570.72;4951428;28;20455;-85
2021/12/24 13:11:49;;;;;;;8.07;5.80;;;;;;;5.49;100.00;97546.72;4950420;28;20042;-85